This is the latest recevied weather packets stored in our database for station/object N3SBK. If no packets are shown the sender has not sent any weather packets the latest 10 day(s).
| Time | Temp. | Humidity | Pressure | Rain* | Wind** | Luminosity | Snow |
|---|---|---|---|---|---|---|---|
| 1787685861 | 23.89° C | 66% | 1010.1 hPa | 0 mm | - | 559 W/m² | - |
| 1787685560 | 23.89° C | 64% | 1010.6 hPa | 0 mm | - | 528 W/m² | - |
| 1787685256 | 23.89° C | 65% | 1010.5 hPa | 0 mm | - | 632 W/m² | - |
| 1787684956 | 23.89° C | 63% | 1010.5 hPa | 0 mm | - | 535 W/m² | - |
| 1787684652 | 24.44° C | 64% | 1010.5 hPa | 0 mm | - | 144 W/m² | - |
| 1787684350 | 24.44° C | 61% | 1010.6 hPa | 0 mm | - | 640 W/m² | - |
| 1787684046 | 23.89° C | 62% | 1010.7 hPa | 0 mm | - | 686 W/m² | - |
| 1787683745 | 22.22° C | 70% | 1010.9 hPa | 0 mm | - | 663 W/m² | - |
| 1787683441 | 22.22° C | 73% | 1010.8 hPa | 0 mm | - | 182 W/m² | - |
| 1787683136 | 22.22° C | 69% | 1011 hPa | 0 mm | - | 81 W/m² | - |
| 1787682834 | 21.67° C | 73% | 1011.2 hPa | 0 mm | - | 216 W/m² | - |
| 1787682529 | 21.67° C | 74% | 1011 hPa | 0 mm | - | 182 W/m² | - |
| 1787682224 | 21.67° C | 72% | 1011.2 hPa | 0 mm | - | 102 W/m² | - |
| 1787681920 | 22.22° C | 71% | 1011.2 hPa | 0 mm | - | 82 W/m² | - |
| 1787681619 | 22.22° C | 71% | 1011.3 hPa | 0 mm | - | 147 W/m² | - |
| 1787681314 | 22.22° C | 70% | 1011.2 hPa | 0 mm | - | 216 W/m² | - |
| 1787681010 | 22.22° C | 75% | 1011.1 hPa | 0 mm | - | 655 W/m² | - |
| 1787680710 | 21.67° C | 75% | 1011.2 hPa | 0 mm | - | 284 W/m² | - |
| 1787680409 | 21.11° C | 75% | 1011.4 hPa | 0 mm | - | 232 W/m² | - |
| 1787680108 | 21.11° C | 77% | 1011.2 hPa | 0 mm | - | 137 W/m² | - |
| 1787679803 | 21.11° C | 76% | 1011.4 hPa | 0 mm | - | 116 W/m² | - |
| 1787679502 | 21.11° C | 75% | 1011.5 hPa | 0 mm | - | 79 W/m² | - |
| 1787679198 | 21.11° C | 73% | 1011.6 hPa | 0 mm | - | 103 W/m² | - |
| 1787678894 | 21.67° C | 73% | 1011.5 hPa | 0 mm | - | 135 W/m² | - |
| 1787678592 | 21.67° C | 71% | 1011.4 hPa | 0 mm | - | 171 W/m² | - |
* Rain latest hour (hover to see other rain measurements)
** Current wind speed in m/s (hover to see current wind gust speed)